Time;durP1;ratioP1;P1;durP2;ratioP2;P2;SDS_P1;SDS_P2;PMS_P1;PMS_P2;Temp;Humidity;BMP_temperature;BMP_pressure;BME280_temperature;BME280_humidity;BME280_pressure;Samples;Min_cycle;Max_cycle;Signal;HPM_P1;HPM_P2
2023/01/29 00:01:25;;;;;;;28.98;20.10;;;2.70;99.90;;;;;;5049282;28;20533;-81
2023/01/29 00:03:51;;;;;;;27.27;19.15;;;3.00;99.90;;;;;;5019545;28;20088;-81
2023/01/29 00:06:17;;;;;;;28.88;19.15;;;3.70;99.90;;;;;;5043507;28;20098;-81
2023/01/29 00:08:43;;;;;;;28.50;19.98;;;2.70;99.90;;;;;;5051234;28;20157;-81
2023/01/29 00:11:09;;;;;;;27.83;19.65;;;3.00;99.90;;;;;;5036014;28;20485;-80
2023/01/29 00:13:35;;;;;;;29.08;20.27;;;2.80;99.90;;;;;;5048704;28;20053;-80
2023/01/29 00:16:01;;;;;;;29.35;20.20;;;2.70;99.90;;;;;;5051880;28;20130;-81
2023/01/29 00:18:28;;;;;;;28.13;20.23;;;2.70;99.90;;;;;;5052360;28;20097;-80
2023/01/29 00:20:54;;;;;;;27.73;19.70;;;2.70;99.90;;;;;;5047567;28;20124;-81
2023/01/29 00:23:20;;;;;;;26.60;19.98;;;2.70;99.90;;;;;;5042414;28;20048;-81
2023/01/29 00:25:46;;;;;;;29.48;20.33;;;2.70;99.90;;;;;;5051410;28;20045;-81
2023/01/29 00:28:13;;;;;;;30.65;20.52;;;2.70;99.90;;;;;;5051724;28;20432;-81
2023/01/29 00:30:38;;;;;;;30.00;20.05;;;2.70;99.90;;;;;;5052031;28;20037;-81
2023/01/29 00:33:05;;;;;;;28.20;20.33;;;2.70;99.90;;;;;;5045680;28;20052;-82
2023/01/29 00:35:31;;;;;;;28.17;20.25;;;2.70;99.90;;;;;;5031670;28;20051;-81
2023/01/29 00:37:58;;;;;;;31.90;19.88;;;2.70;99.90;;;;;;5050552;28;20059;-81
2023/01/29 00:40:25;;;;;;;26.38;20.10;;;2.70;99.90;;;;;;5050999;28;20049;-81
2023/01/29 00:45:35;;;;;;;26.00;19.17;;;2.70;99.90;;;;;;5043612;28;20053;-81
2023/01/29 00:48:02;;;;;;;27.35;19.20;;;2.80;99.90;;;;;;5047589;28;20053;-81
2023/01/29 00:50:29;;;;;;;26.08;19.83;;;2.80;99.90;;;;;;5047943;28;20092;-81
2023/01/29 00:52:54;;;;;;;26.67;19.13;;;2.80;99.90;;;;;;5044058;28;20099;-81
2023/01/29 00:55:21;;;;;;;26.98;18.33;;;2.80;99.90;;;;;;5046516;28;20449;-81
2023/01/29 00:57:47;;;;;;;26.58;19.75;;;2.80;99.90;;;;;;5022112;28;20045;-82
2023/01/29 01:00:16;;;;;;;27.20;18.60;;;2.80;99.90;;;;;;5081251;28;20120;-81
2023/01/29 01:05:27;;;;;;;27.45;19.85;;;2.80;99.90;;;;;;5048401;28;20049;-81
2023/01/29 01:07:55;;;;;;;28.98;20.60;;;2.80;99.90;;;;;;5049441;28;20099;-81
2023/01/29 01:10:31;;;;;;;27.33;20.02;;;2.80;99.90;;;;;;5050110;28;20056;-81
2023/01/29 01:13:01;;;;;;;27.60;20.02;;;2.80;99.90;;;;;;5055926;28;20055;-80
2023/01/29 01:15:33;;;;;;;26.60;20.08;;;3.40;99.90;;;;;;5040873;28;20103;-81
2023/01/29 01:18:01;;;;;;;29.77;19.95;;;3.50;99.90;;;;;;5055392;28;20045;-81
2023/01/29 01:20:28;;;;;;;25.52;19.20;;;3.00;99.90;;;;;;5054008;28;20053;-81
2023/01/29 01:22:54;;;;;;;31.70;20.40;;;2.80;99.90;;;;;;5048861;28;20053;-80
2023/01/29 01:25:22;;;;;;;28.02;20.40;;;2.80;99.90;;;;;;5047598;28;20061;-80
2023/01/29 01:27:50;;;;;;;27.50;19.55;;;3.50;99.90;;;;;;5035974;28;20053;-81
2023/01/29 01:30:16;;;;;;;25.38;19.13;;;3.80;99.90;;;;;;5043124;28;20128;-80
2023/01/29 01:32:42;;;;;;;28.77;20.33;;;2.80;99.90;;;;;;5038668;28;20194;-81
2023/01/29 01:35:09;;;;;;;28.38;20.42;;;2.80;99.90;;;;;;5045319;28;20081;-81
2023/01/29 01:37:38;;;;;;;28.77;19.42;;;2.80;99.90;;;;;;5033953;28;20068;-80
2023/01/29 01:40:11;;;;;;;26.85;19.13;;;2.80;99.90;;;;;;5054536;28;20502;-81
2023/01/29 01:42:38;;;;;;;28.83;20.20;;;2.90;99.90;;;;;;5039243;28;20057;-81
2023/01/29 01:45:09;;;;;;;29.88;19.98;;;2.90;99.90;;;;;;5026530;28;20041;-81
2023/01/29 01:47:44;;;;;;;27.60;19.58;;;2.90;99.90;;;;;;5023974;28;20045;-81
2023/01/29 01:50:22;;;;;;;28.85;19.90;;;2.80;99.90;;;;;;5052529;28;20041;-81
2023/01/29 01:52:52;;;;;;;27.67;19.55;;;2.90;99.90;;;;;;5035216;28;20053;-81
2023/01/29 01:55:23;;;;;;;29.13;19.70;;;2.90;99.90;;;;;;5047293;28;20053;-81
2023/01/29 01:57:54;;;;;;;30.30;19.77;;;2.90;99.90;;;;;;5034933;28;20053;-81
2023/01/29 02:00:20;;;;;;;28.15;20.20;;;2.90;99.90;;;;;;5051345;28;20397;-81
2023/01/29 02:11:13;;;;;;;27.27;18.70;;;2.90;99.90;;;;;;5054551;28;20519;-81
2023/01/29 02:13:39;;;;;;;28.23;19.48;;;3.10;99.90;;;;;;5040058;28;20053;-80
2023/01/29 02:16:05;;;;;;;27.88;19.55;;;2.90;99.90;;;;;;5054530;28;20044;-81
2023/01/29 02:18:36;;;;;;;27.77;19.45;;;2.90;99.90;;;;;;5050917;28;20049;-82
2023/01/29 02:21:28;;;;;;;27.30;19.48;;;2.90;99.90;;;;;;5034428;28;20057;-81
2023/01/29 02:24:15;;;;;;;26.55;18.55;;;2.90;99.90;;;;;;5047718;28;20057;-81
2023/01/29 02:26:57;;;;;;;26.88;18.98;;;2.90;99.90;;;;;;5054640;28;20049;-81
2023/01/29 02:29:49;;;;;;;29.27;19.63;;;2.90;99.90;;;;;;5050499;28;20045;-81
2023/01/29 02:32:29;;;;;;;25.80;19.23;;;2.90;99.90;;;;;;5034049;28;20405;-80
2023/01/29 02:35:30;;;;;;;28.70;19.45;;;3.00;99.90;;;;;;5017881;28;20045;-81
2023/01/29 02:38:00;;;;;;;30.25;19.92;;;3.00;99.90;;;;;;5047644;28;20504;-81
2023/01/29 02:40:54;;;;;;;26.73;19.25;;;3.00;99.90;;;;;;5044532;28;20114;-81
2023/01/29 02:43:38;;;;;;;28.08;19.45;;;3.00;99.90;;;;;;5074850;28;20378;-81
2023/01/29 02:46:09;;;;;;;26.73;18.25;;;3.00;99.90;;;;;;5053815;28;20465;-81
2023/01/29 02:49:00;;;;;;;26.85;19.52;;;3.00;99.90;;;;;;5039216;28;20106;-81
2023/01/29 02:51:43;;;;;;;28.08;19.08;;;3.00;99.90;;;;;;5054245;28;20044;-81
2023/01/29 02:54:32;;;;;;;29.08;19.10;;;3.00;99.90;;;;;;5033023;28;20048;-80
2023/01/29 02:57:13;;;;;;;27.00;18.65;;;3.00;99.90;;;;;;5025196;28;20085;-81
2023/01/29 03:00:09;;;;;;;28.63;20.07;;;3.00;99.90;;;;;;5050299;28;20095;-81
2023/01/29 03:02:49;;;;;;;27.67;19.98;;;3.00;99.90;;;;;;5047609;28;20302;-81
2023/01/29 03:05:22;;;;;;;27.92;19.65;;;3.10;99.90;;;;;;5053436;28;20049;-80
2023/01/29 03:07:53;;;;;;;27.15;19.30;;;3.00;99.90;;;;;;5030039;28;20053;-80
2023/01/29 03:10:41;;;;;;;28.50;19.52;;;3.20;99.90;;;;;;5028148;28;20380;-81
2023/01/29 03:13:35;;;;;;;27.00;18.88;;;3.00;99.90;;;;;;5051055;28;20124;-80
2023/01/29 03:16:10;;;;;;;26.40;19.35;;;3.00;99.90;;;;;;5038314;28;20053;-80
2023/01/29 03:18:44;;;;;;;28.75;19.75;;;3.00;99.90;;;;;;5040501;28;20125;-81
2023/01/29 03:32:27;;;;;;;29.33;20.13;;;3.00;99.90;;;;;;5032977;28;20412;-80
2023/01/29 03:34:59;;;;;;;27.55;19.27;;;3.40;99.90;;;;;;5035936;28;20041;-81
2023/01/29 03:37:39;;;;;;;31.65;21.67;;;3.00;99.90;;;;;;5069659;28;20053;-81
2023/01/29 03:40:07;;;;;;;30.75;20.63;;;3.00;99.90;;;;;;5047275;28;20121;-80
2023/01/29 03:43:07;;;;;;;30.25;20.02;;;3.00;99.90;;;;;;5049813;28;20080;-81
2023/01/29 03:45:36;;;;;;;28.05;19.65;;;2.90;99.90;;;;;;5042056;28;20045;-80
2023/01/29 03:48:15;;;;;;;31.55;20.95;;;3.00;99.90;;;;;;5052862;28;20053;-82
2023/01/29 03:51:05;;;;;;;32.17;21.70;;;2.90;99.90;;;;;;5042624;28;20050;-81
2023/01/29 03:53:56;;;;;;;31.58;22.45;;;2.90;99.90;;;;;;5045792;28;20065;-80
2023/01/29 03:56:33;;;;;;;32.05;22.17;;;2.90;99.90;;;;;;5043826;28;20045;-80
2023/01/29 03:59:10;;;;;;;29.75;21.50;;;2.90;99.90;;;;;;5019465;28;20048;-82
2023/01/29 04:02:11;;;;;;;30.77;21.75;;;2.90;99.90;;;;;;5045024;28;20130;-82
2023/01/29 04:04:39;;;;;;;32.35;22.00;;;2.90;99.90;;;;;;5058306;28;20517;-81
2023/01/29 04:07:17;;;;;;;30.20;19.40;;;2.90;99.90;;;;;;5029278;28;20049;-81
2023/01/29 04:09:50;;;;;;;30.77;22.15;;;3.00;99.90;;;;;;5042204;28;20404;-81
2023/01/29 04:12:23;;;;;;;31.92;21.42;;;3.00;99.90;;;;;;5048641;28;20052;-81
2023/01/29 04:14:51;;;;;;;31.33;22.63;;;3.00;99.90;;;;;;5035337;28;20048;-81
2023/01/29 04:17:26;;;;;;;32.22;22.73;;;3.20;99.90;;;;;;5048145;28;20126;-80
2023/01/29 04:19:52;;;;;;;32.33;22.13;;;3.00;99.90;;;;;;5027090;28;20052;-81
2023/01/29 04:22:38;;;;;;;31.98;22.45;;;3.00;99.90;;;;;;5034491;28;20053;-80
2023/01/29 04:25:14;;;;;;;29.73;21.65;;;3.00;99.90;;;;;;5043518;28;20456;-81
2023/01/29 04:28:04;;;;;;;31.40;22.33;;;3.00;99.90;;;;;;5052396;28;20076;-81
2023/01/29 04:30:42;;;;;;;32.20;22.65;;;3.00;99.90;;;;;;5051526;28;20063;-81
2023/01/29 04:33:38;;;;;;;31.65;22.08;;;3.20;99.90;;;;;;5031818;28;20132;-81
2023/01/29 04:36:39;;;;;;;31.73;21.80;;;3.00;99.90;;;;;;5048368;28;20048;-81
2023/01/29 04:39:44;;;;;;;31.13;22.25;;;3.00;99.90;;;;;;5033507;28;20463;-80
2023/01/29 04:42:23;;;;;;;30.83;22.10;;;3.10;99.90;;;;;;5041382;28;20115;-81
2023/01/29 04:45:08;;;;;;;31.45;22.90;;;3.10;99.90;;;;;;5034930;28;20044;-81
2023/01/29 04:47:56;;;;;;;34.30;22.60;;;3.10;99.90;;;;;;5051631;28;20045;-81
2023/01/29 04:50:33;;;;;;;31.00;22.35;;;3.10;99.90;;;;;;5027836;28;20067;-81
2023/01/29 04:53:16;;;;;;;31.10;22.58;;;3.10;99.90;;;;;;5051954;28;20057;-81
2023/01/29 04:56:02;;;;;;;31.67;23.05;;;3.20;99.90;;;;;;5050498;28;20057;-81
2023/01/29 04:58:43;;;;;;;31.25;23.45;;;3.20;99.90;;;;;;5037654;28;20132;-81
2023/01/29 05:01:15;;;;;;;31.67;22.80;;;3.20;99.90;;;;;;5052133;28;20094;-81
2023/01/29 05:03:45;;;;;;;36.08;24.75;;;3.20;99.90;;;;;;5051671;28;20045;-81
2023/01/29 05:06:12;;;;;;;32.60;22.98;;;3.20;99.90;;;;;;5051062;28;20049;-81
2023/01/29 05:08:39;;;;;;;32.92;23.95;;;3.20;99.90;;;;;;5047911;28;20404;-81
2023/01/29 05:11:05;;;;;;;33.85;24.52;;;3.20;99.90;;;;;;5051802;28;20045;-81
2023/01/29 05:13:33;;;;;;;31.70;23.75;;;3.20;99.90;;;;;;5020536;28;20049;-80
2023/01/29 05:16:05;;;;;;;31.20;23.42;;;3.20;99.90;;;;;;5027520;28;20059;-81
2023/01/29 05:18:31;;;;;;;32.97;23.60;;;3.20;99.90;;;;;;5031367;28;20202;-79
2023/01/29 05:21:02;;;;;;;31.70;23.83;;;3.30;99.90;;;;;;5051707;28;20044;-81
2023/01/29 05:23:27;;;;;;;31.98;23.88;;;3.30;99.90;;;;;;5050539;28;20504;-81
2023/01/29 05:25:55;;;;;;;33.53;22.92;;;3.30;99.90;;;;;;5050680;28;20037;-81
2023/01/29 05:28:21;;;;;;;34.42;25.38;;;3.30;99.90;;;;;;5034972;28;20052;-81
2023/01/29 05:30:49;;;;;;;35.25;26.10;;;3.30;99.90;;;;;;5018350;28;20380;-81
2023/01/29 05:33:26;;;;;;;34.65;25.02;;;3.30;99.90;;;;;;5045243;28;20054;-81
2023/01/29 05:35:52;;;;;;;34.92;26.15;;;3.30;99.90;;;;;;5045060;28;20128;-81
2023/01/29 05:38:18;;;;;;;36.42;26.42;;;3.30;99.90;;;;;;5036403;28;20134;-81
2023/01/29 05:40:44;;;;;;;36.50;26.95;;;3.40;99.90;;;;;;5034090;28;20059;-81
2023/01/29 05:43:21;;;;;;;35.00;26.25;;;3.30;99.90;;;;;;5047661;28;20050;-81
2023/01/29 05:45:56;;;;;;;34.72;26.70;;;3.40;99.90;;;;;;5031362;28;20138;-81
2023/01/29 05:48:21;;;;;;;37.33;26.80;;;3.50;99.90;;;;;;5061604;28;20053;-81
2023/01/29 05:50:47;;;;;;;36.00;25.83;;;3.40;99.90;;;;;;5031598;28;20053;-81
2023/01/29 05:53:13;;;;;;;35.10;26.65;;;3.60;99.90;;;;;;5047765;28;20041;-81
2023/01/29 05:55:39;;;;;;;35.42;27.15;;;4.00;99.90;;;;;;5052775;28;20103;-81
2023/01/29 05:58:05;;;;;;;36.53;27.55;;;3.40;99.90;;;;;;5054078;28;20224;-81
2023/01/29 06:00:30;;;;;;;34.92;27.05;;;3.50;99.90;;;;;;5051561;28;20123;-82
2023/01/29 06:02:57;;;;;;;36.72;27.73;;;3.50;99.90;;;;;;5047422;28;20092;-81
2023/01/29 06:05:23;;;;;;;35.60;27.77;;;3.50;99.90;;;;;;5037560;28;20114;-81
2023/01/29 06:07:49;;;;;;;38.50;27.13;;;3.50;99.90;;;;;;5040796;28;20045;-81
2023/01/29 06:10:16;;;;;;;35.13;27.13;;;3.50;99.90;;;;;;5047377;28;20053;-80
2023/01/29 06:12:43;;;;;;;37.08;27.88;;;3.50;99.90;;;;;;5018575;28;20057;-81
2023/01/29 06:15:10;;;;;;;36.58;27.95;;;3.50;99.90;;;;;;5035304;28;20159;-81
2023/01/29 06:17:35;;;;;;;36.33;27.35;;;3.50;99.90;;;;;;5048176;28;20132;-81
2023/01/29 06:20:01;;;;;;;35.20;26.23;;;3.50;99.90;;;;;;5047148;28;20131;-81
2023/01/29 06:22:27;;;;;;;37.25;28.35;;;3.50;99.90;;;;;;5054503;28;20553;-81
2023/01/29 06:24:53;;;;;;;35.83;28.08;;;3.40;99.90;;;;;;5053658;28;20136;-81
2023/01/29 06:27:18;;;;;;;36.83;27.77;;;3.60;99.90;;;;;;5020703;28;20045;-80
2023/01/29 06:29:44;;;;;;;37.15;28.13;;;3.70;99.90;;;;;;5050727;28;20133;-82
2023/01/29 06:32:10;;;;;;;35.08;27.02;;;3.40;99.90;;;;;;5002010;28;20432;-81
2023/01/29 06:34:35;;;;;;;36.95;28.02;;;3.30;99.90;;;;;;5039578;28;20036;-81
2023/01/29 06:37:01;;;;;;;38.28;28.50;;;4.00;99.90;;;;;;5046409;28;20120;-81
2023/01/29 06:39:27;;;;;;;34.40;26.55;;;3.30;99.90;;;;;;5028407;28;20106;-81
2023/01/29 06:41:52;;;;;;;38.00;27.10;;;3.30;99.90;;;;;;5063866;28;20080;-81
2023/01/29 06:44:18;;;;;;;34.47;26.77;;;3.40;99.90;;;;;;5043379;28;20107;-81
2023/01/29 06:46:44;;;;;;;35.28;27.42;;;3.40;99.90;;;;;;5049408;28;20063;-81
2023/01/29 06:49:10;;;;;;;34.20;25.85;;;3.40;99.90;;;;;;5044903;28;20044;-81
2023/01/29 06:51:35;;;;;;;35.03;27.55;;;3.50;99.90;;;;;;5050711;28;20131;-81
2023/01/29 06:54:01;;;;;;;38.38;28.23;;;3.40;99.90;;;;;;5033110;28;20061;-80
2023/01/29 06:56:27;;;;;;;36.50;27.20;;;3.40;99.90;;;;;;5047644;28;20473;-81
2023/01/29 06:58:53;;;;;;;34.67;25.83;;;4.20;99.90;;;;;;5033539;28;20436;-81
2023/01/29 07:01:18;;;;;;;36.22;26.55;;;3.40;99.90;;;;;;5017518;28;20140;-80
2023/01/29 07:03:48;;;;;;;36.55;27.17;;;3.70;99.90;;;;;;5038077;28;20052;-81
2023/01/29 07:06:13;;;;;;;35.28;26.33;;;3.40;99.90;;;;;;5033201;28;20045;-82
2023/01/29 07:08:39;;;;;;;39.05;28.50;;;3.40;99.90;;;;;;5033070;28;20055;-82
2023/01/29 07:11:06;;;;;;;35.78;27.45;;;3.40;99.90;;;;;;5059977;28;20055;-82
2023/01/29 07:13:32;;;;;;;36.00;27.63;;;3.40;99.90;;;;;;5031883;28;20460;-82
2023/01/29 07:16:02;;;;;;;37.65;27.38;;;3.40;99.90;;;;;;5051695;28;20437;-82
2023/01/29 07:18:28;;;;;;;38.35;27.88;;;3.40;99.90;;;;;;5053329;28;20052;-82
2023/01/29 07:20:55;;;;;;;36.10;28.30;;;3.90;99.90;;;;;;5053237;28;20496;-83
2023/01/29 07:23:21;;;;;;;37.75;28.65;;;3.40;99.90;;;;;;5050072;28;20052;-82
2023/01/29 07:25:48;;;;;;;37.38;27.48;;;3.40;99.90;;;;;;5032530;28;20068;-83
2023/01/29 07:28:19;;;;;;;38.17;28.17;;;3.80;99.90;;;;;;5045951;28;20053;-83
2023/01/29 07:30:45;;;;;;;37.22;29.02;;;3.40;99.90;;;;;;5049961;28;20103;-82
2023/01/29 07:33:10;;;;;;;36.58;28.05;;;3.40;99.90;;;;;;5035633;28;20042;-82
2023/01/29 07:35:38;;;;;;;39.28;28.35;;;3.50;99.90;;;;;;5032548;28;20489;-82
2023/01/29 07:38:06;;;;;;;37.92;26.75;;;3.40;99.90;;;;;;5018965;28;20068;-83
2023/01/29 07:40:32;;;;;;;37.80;29.67;;;3.40;99.90;;;;;;5034139;28;20064;-83
2023/01/29 07:43:02;;;;;;;34.60;25.50;;;3.70;99.90;;;;;;5020988;28;20049;-83
2023/01/29 07:45:29;;;;;;;39.88;28.88;;;3.40;99.90;;;;;;5052614;28;20052;-83
2023/01/29 07:47:55;;;;;;;36.17;27.95;;;3.40;99.90;;;;;;5048766;28;20048;-83
2023/01/29 07:50:22;;;;;;;36.10;27.38;;;3.30;99.90;;;;;;5048293;28;20421;-83
2023/01/29 07:52:48;;;;;;;37.05;27.45;;;3.40;99.90;;;;;;5049617;28;20053;-83
2023/01/29 07:55:14;;;;;;;36.08;27.05;;;3.50;99.90;;;;;;5053710;28;20046;-83
2023/01/29 07:57:40;;;;;;;37.33;27.52;;;3.40;99.90;;;;;;5050507;28;20043;-83
2023/01/29 08:00:06;;;;;;;36.50;27.33;;;3.80;99.90;;;;;;5051896;28;20048;-83
2023/01/29 08:02:32;;;;;;;37.70;27.90;;;3.40;99.90;;;;;;5052308;28;20060;-83
2023/01/29 08:05:00;;;;;;;37.13;27.02;;;3.40;99.90;;;;;;5032816;28;20104;-83
2023/01/29 08:07:26;;;;;;;35.03;26.52;;;3.40;99.90;;;;;;5015147;28;20038;-82
2023/01/29 08:09:51;;;;;;;35.95;27.50;;;3.40;99.90;;;;;;5030322;28;20069;-83
2023/01/29 08:12:17;;;;;;;36.53;27.77;;;3.80;99.90;;;;;;5021797;28;20049;-82
2023/01/29 08:14:44;;;;;;;38.05;27.13;;;3.40;99.90;;;;;;5017211;28;20073;-82
2023/01/29 08:17:11;;;;;;;38.40;28.55;;;3.40;99.90;;;;;;5033681;28;20045;-83
2023/01/29 08:19:36;;;;;;;39.20;28.65;;;4.30;99.90;;;;;;5041254;28;20088;-83
2023/01/29 08:22:03;;;;;;;36.22;26.63;;;3.40;99.90;;;;;;5043294;28;20091;-82
2023/01/29 08:24:29;;;;;;;36.78;27.42;;;3.50;99.90;;;;;;5038385;28;20111;-83
2023/01/29 08:26:55;;;;;;;35.58;26.65;;;3.40;99.90;;;;;;5024785;28;20048;-82
2023/01/29 08:29:20;;;;;;;39.03;27.77;;;3.50;99.90;;;;;;5042545;28;20049;-83
2023/01/29 08:31:46;;;;;;;37.00;27.33;;;3.50;99.90;;;;;;5012389;28;20060;-82
2023/01/29 08:34:12;;;;;;;38.67;27.13;;;3.50;99.90;;;;;;5049444;28;20121;-83
2023/01/29 08:36:39;;;;;;;38.55;27.35;;;3.50;99.90;;;;;;5065803;28;20554;-82
2023/01/29 08:39:04;;;;;;;34.88;26.23;;;3.50;99.90;;;;;;5033871;28;20044;-82
2023/01/29 08:41:30;;;;;;;38.13;27.20;;;3.50;99.90;;;;;;5050734;28;20049;-82
2023/01/29 08:43:56;;;;;;;36.88;25.83;;;3.50;99.90;;;;;;5050592;28;20040;-82
2023/01/29 08:46:23;;;;;;;36.30;27.00;;;3.50;99.90;;;;;;5064147;28;20056;-83
2023/01/29 08:48:48;;;;;;;34.30;25.75;;;3.50;99.90;;;;;;5047177;28;20044;-82
2023/01/29 08:51:14;;;;;;;36.40;27.15;;;3.50;99.90;;;;;;5049608;28;20056;-82
2023/01/29 08:53:40;;;;;;;38.15;27.65;;;3.50;99.90;;;;;;5061867;28;20052;-83
2023/01/29 08:56:06;;;;;;;40.05;27.33;;;3.60;99.90;;;;;;5069343;28;20388;-82
2023/01/29 08:58:31;;;;;;;35.85;26.27;;;3.60;99.90;;;;;;5065261;28;20091;-81
2023/01/29 09:01:08;;;;;;;36.95;27.40;;;3.60;99.90;;;;;;5069649;28;20080;-82
2023/01/29 09:03:34;;;;;;;35.97;27.60;;;3.60;99.90;;;;;;5062105;28;20049;-82
2023/01/29 09:05:59;;;;;;;35.05;27.27;;;3.60;99.90;;;;;;5063381;28;20048;-82
2023/01/29 09:08:25;;;;;;;37.15;27.30;;;3.50;99.90;;;;;;5064512;28;20048;-81
2023/01/29 09:10:51;;;;;;;36.00;26.60;;;3.50;99.90;;;;;;5047263;28;20044;-82
2023/01/29 09:13:17;;;;;;;35.00;25.27;;;3.60;99.90;;;;;;5042180;28;20139;-82
2023/01/29 09:15:42;;;;;;;35.22;26.27;;;3.60;99.90;;;;;;5059649;28;20041;-82
2023/01/29 09:18:08;;;;;;;36.22;26.83;;;3.60;99.90;;;;;;5044611;28;20076;-80
2023/01/29 09:20:36;;;;;;;37.95;27.63;;;3.80;99.90;;;;;;5063873;28;20373;-80
2023/01/29 09:23:06;;;;;;;37.58;26.40;;;3.70;99.90;;;;;;5055773;28;20053;-81
2023/01/29 09:25:32;;;;;;;35.33;26.15;;;3.70;99.90;;;;;;5057585;28;20545;-81
2023/01/29 09:27:58;;;;;;;35.05;27.02;;;3.70;99.90;;;;;;5049174;28;20056;-80
2023/01/29 09:30:24;;;;;;;36.80;26.65;;;3.80;99.90;;;;;;5067029;28;20052;-80
2023/01/29 09:32:49;;;;;;;34.85;24.33;;;3.80;99.90;;;;;;5070272;28;20119;-81
2023/01/29 09:35:15;;;;;;;35.38;26.98;;;3.90;99.90;;;;;;5068073;28;20497;-80
2023/01/29 09:37:41;;;;;;;37.53;25.73;;;3.90;99.90;;;;;;5069643;28;20280;-81
2023/01/29 09:40:27;;;;;;;34.65;26.48;;;4.00;99.90;;;;;;5054543;28;20068;-80
2023/01/29 09:43:03;;;;;;;34.97;25.83;;;4.00;99.90;;;;;;5071904;28;20434;-81
2023/01/29 09:45:30;;;;;;;32.95;25.08;;;4.10;99.90;;;;;;5068917;28;20185;-80
2023/01/29 09:48:00;;;;;;;31.20;25.05;;;4.10;99.90;;;;;;5054096;28;20048;-80
2023/01/29 09:50:37;;;;;;;33.35;26.23;;;4.10;99.90;;;;;;5071448;28;20079;-81
2023/01/29 09:53:40;;;;;;;35.50;26.38;;;4.10;99.90;;;;;;5052112;28;20056;-81
2023/01/29 09:56:15;;;;;;;34.22;25.10;;;4.20;99.90;;;;;;5076825;28;20037;-81
2023/01/29 09:58:43;;;;;;;29.98;22.48;;;4.30;99.90;;;;;;5067882;28;20052;-82
2023/01/29 10:01:44;;;;;;;32.83;23.17;;;4.30;99.90;;;;;;5065822;28;20048;-82
2023/01/29 10:04:21;;;;;;;36.30;26.77;;;4.40;99.90;;;;;;5055915;28;20484;-82
2023/01/29 10:06:54;;;;;;;33.03;25.15;;;4.50;99.90;;;;;;5069308;28;20400;-82
2023/01/29 10:10:09;;;;;;;32.28;25.67;;;4.60;99.90;;;;;;5064487;28;20132;-83
2023/01/29 10:12:49;;;;;;;32.33;25.52;;;4.50;99.90;;;;;;5045489;28;20109;-83
2023/01/29 10:15:29;;;;;;;31.98;25.73;;;4.60;99.90;;;;;;5062755;28;20128;-82
2023/01/29 10:18:14;;;;;;;32.55;25.90;;;4.60;99.90;;;;;;5065903;28;20049;-83
2023/01/29 10:21:06;;;;;;;35.00;26.98;;;4.60;99.90;;;;;;5050119;28;20049;-81
2023/01/29 10:23:36;;;;;;;33.58;26.20;;;4.50;99.90;;;;;;5065906;28;20052;-81
2023/01/29 10:26:01;;;;;;;34.70;27.10;;;4.60;99.90;;;;;;5070137;28;20044;-82
2023/01/29 10:28:33;;;;;;;34.38;26.70;;;4.50;99.90;;;;;;5068194;28;20056;-82
2023/01/29 10:31:31;;;;;;;33.38;26.25;;;4.50;99.90;;;;;;5069994;28;20117;-81
2023/01/29 10:34:06;;;;;;;35.83;27.63;;;4.60;99.90;;;;;;5056766;28;20065;-81
2023/01/29 10:36:34;;;;;;;35.03;27.08;;;4.50;99.90;;;;;;5067750;28;20460;-82
2023/01/29 10:38:59;;;;;;;33.17;25.13;;;5.10;99.90;;;;;;5066549;28;20045;-82
2023/01/29 10:42:04;;;;;;;35.63;27.50;;;4.50;99.90;;;;;;5064875;28;20048;-81
2023/01/29 10:44:50;;;;;;;38.35;28.33;;;4.50;99.90;;;;;;5063413;28;20171;-82
2023/01/29 10:48:03;;;;;;;34.90;26.50;;;4.50;99.90;;;;;;5071501;28;20121;-81
2023/01/29 10:50:49;;;;;;;37.45;28.60;;;4.50;99.90;;;;;;4954835;28;20065;-81
2023/01/29 10:53:45;;;;;;;34.20;26.27;;;4.50;99.90;;;;;;5053918;28;20060;-80
2023/01/29 10:56:16;;;;;;;35.25;26.75;;;4.50;99.90;;;;;;5067335;28;20377;-81
2023/01/29 10:58:45;;;;;;;35.60;26.23;;;4.50;99.90;;;;;;5069468;28;20507;-82
2023/01/29 11:01:11;;;;;;;32.40;25.50;;;4.50;99.90;;;;;;5068789;28;20060;-81
2023/01/29 11:03:38;;;;;;;33.90;24.80;;;4.50;99.90;;;;;;5070491;28;20056;-82
2023/01/29 11:06:12;;;;;;;35.97;27.42;;;4.50;99.90;;;;;;5071521;28;20472;-82
2023/01/29 11:09:15;;;;;;;34.45;26.02;;;4.50;99.90;;;;;;5067584;28;20079;-81
2023/01/29 11:12:02;;;;;;;35.45;26.92;;;4.60;99.90;;;;;;5070451;28;20493;-81
2023/01/29 11:14:36;;;;;;;35.70;27.17;;;4.50;99.90;;;;;;5069202;28;20052;-81
2023/01/29 11:17:02;;;;;;;37.28;27.58;;;4.60;99.90;;;;;;5067063;28;20052;-81
2023/01/29 11:19:40;;;;;;;36.50;27.40;;;4.60;99.90;;;;;;5070105;28;20447;-81
2023/01/29 11:22:19;;;;;;;36.38;27.45;;;4.50;99.90;;;;;;5084959;28;20049;-81
2023/01/29 11:25:05;;;;;;;34.80;27.00;;;4.60;99.90;;;;;;5061180;28;20049;-81
2023/01/29 11:27:34;;;;;;;38.85;28.90;;;4.60;99.90;;;;;;5049897;28;20388;-81
2023/01/29 11:30:00;;;;;;;38.55;27.77;;;4.60;99.90;;;;;;5043759;28;20477;-81
2023/01/29 11:32:29;;;;;;;35.70;28.13;;;4.70;99.90;;;;;;5035117;28;20098;-81
2023/01/29 11:34:57;;;;;;;36.28;26.02;;;4.70;99.90;;;;;;5058172;28;20408;-81
2023/01/29 11:37:30;;;;;;;35.63;28.35;;;4.70;99.90;;;;;;5059368;28;20044;-81
2023/01/29 11:39:55;;;;;;;38.80;28.00;;;5.30;99.90;;;;;;5063910;28;20048;-82
2023/01/29 11:42:22;;;;;;;35.72;26.48;;;4.80;99.90;;;;;;5094287;28;20404;-82
2023/01/29 11:44:48;;;;;;;33.75;27.02;;;4.80;99.90;;;;;;5065728;28;20048;-81
2023/01/29 11:47:22;;;;;;;36.10;26.35;;;4.80;99.90;;;;;;5051331;28;20098;-82
2023/01/29 11:49:56;;;;;;;39.92;28.35;;;4.80;99.90;;;;;;5060790;28;20089;-80
2023/01/29 11:52:37;;;;;;;34.42;27.30;;;4.80;99.90;;;;;;5063877;28;20508;-82
2023/01/29 11:55:15;;;;;;;35.00;27.23;;;4.80;99.90;;;;;;5097145;28;20476;-82
2023/01/29 11:57:45;;;;;;;33.08;25.50;;;4.90;99.90;;;;;;5065910;28;20080;-80
2023/01/29 12:00:24;;;;;;;36.13;27.27;;;5.00;99.90;;;;;;5050495;28;20067;-79
2023/01/29 12:03:04;;;;;;;34.05;25.50;;;5.00;99.90;;;;;;5064804;28;21606;-81
2023/01/29 12:05:29;;;;;;;33.83;25.10;;;5.00;99.90;;;;;;5050868;28;20048;-82
2023/01/29 12:07:58;;;;;;;35.03;27.75;;;5.10;99.90;;;;;;5065736;28;20349;-81
2023/01/29 12:10:38;;;;;;;37.17;27.83;;;5.10;99.90;;;;;;5066238;28;20074;-82
2023/01/29 12:13:18;;;;;;;35.58;26.45;;;5.10;99.90;;;;;;5102388;28;20052;-81
2023/01/29 12:15:45;;;;;;;37.17;27.10;;;5.10;99.90;;;;;;5052672;28;20394;-81
2023/01/29 12:18:40;;;;;;;33.90;26.40;;;5.10;99.90;;;;;;5050783;28;20055;-81
2023/01/29 12:21:19;;;;;;;35.25;26.20;;;5.20;99.90;;;;;;5061535;28;20088;-80
2023/01/29 12:23:57;;;;;;;34.30;23.65;;;5.10;99.90;;;;;;5064096;28;20082;-81
2023/01/29 12:26:45;;;;;;;35.75;25.98;;;5.20;99.90;;;;;;5064884;28;20088;-81
2023/01/29 12:29:35;;;;;;;36.25;27.13;;;5.10;99.90;;;;;;5066105;28;20515;-82
2023/01/29 12:32:21;;;;;;;38.42;27.13;;;5.10;99.90;;;;;;5068948;28;20056;-82
2023/01/29 12:34:56;;;;;;;35.70;25.33;;;5.00;99.90;;;;;;5063226;28;20044;-82
2023/01/29 12:37:50;;;;;;;39.42;27.48;;;5.10;99.90;;;;;;5050847;28;20051;-81
2023/01/29 12:40:17;;;;;;;37.65;27.10;;;5.00;99.90;;;;;;5095594;28;20079;-81
2023/01/29 12:42:54;;;;;;;35.97;27.83;;;5.00;99.90;;;;;;5062418;28;20048;-81
2023/01/29 12:45:25;;;;;;;31.98;22.40;;;5.00;99.90;;;;;;5060399;28;20040;-79
2023/01/29 12:47:56;;;;;;;37.65;28.40;;;5.00;99.90;;;;;;5065812;28;20079;-82
2023/01/29 12:50:36;;;;;;;37.60;26.83;;;5.00;99.90;;;;;;5062795;28;20499;-81
2023/01/29 12:53:11;;;;;;;40.67;31.17;;;4.90;99.90;;;;;;5063157;28;20052;-82
2023/01/29 12:55:42;;;;;;;43.40;32.13;;;4.80;99.90;;;;;;5066646;28;20057;-82
2023/01/29 12:58:21;;;;;;;42.15;29.90;;;4.80;99.90;;;;;;5065713;28;20044;-82
2023/01/29 13:00:51;;;;;;;43.00;31.60;;;4.70;99.90;;;;;;5067627;28;20052;-81
2023/01/29 13:03:33;;;;;;;45.55;31.67;;;4.60;99.90;;;;;;5050057;28;20086;-81
2023/01/29 13:06:05;;;;;;;39.13;29.00;;;4.60;99.90;;;;;;5072960;28;20037;-81
2023/01/29 13:08:57;;;;;;;43.17;30.10;;;4.60;99.90;;;;;;5069807;28;20086;-80
2023/01/29 13:11:36;;;;;;;42.75;31.05;;;4.50;99.90;;;;;;5067753;28;20051;-81
2023/01/29 13:14:23;;;;;;;39.05;29.23;;;4.60;99.90;;;;;;5070998;28;20052;-82
2023/01/29 13:16:54;;;;;;;39.22;29.15;;;4.50;99.90;;;;;;5070364;28;20500;-81
2023/01/29 13:19:26;;;;;;;38.63;28.40;;;4.50;99.90;;;;;;5054693;28;20055;-79
2023/01/29 13:21:55;;;;;;;43.20;31.38;;;4.50;99.90;;;;;;5073342;28;20059;-81
2023/01/29 13:24:23;;;;;;;40.25;28.83;;;4.50;99.90;;;;;;5071823;28;20076;-80
2023/01/29 13:26:50;;;;;;;44.22;31.58;;;4.50;99.90;;;;;;5056957;28;20068;-82
2023/01/29 13:29:23;;;;;;;40.05;28.65;;;4.50;99.90;;;;;;5067450;28;20420;-83